Time;durP1;ratioP1;P1;durP2;ratioP2;P2;SDS_P1;SDS_P2;PMS_P1;PMS_P2;Temp;Humidity;BMP_temperature;BMP_pressure;BME280_temperature;BME280_humidity;BME280_pressure;Samples;Min_cycle;Max_cycle;Signal;HPM_P1;HPM_P2
2023/12/19 00:00:17;;;;;;;22.15;15.75;;;4.30;1.00;;;2.80;100.00;101782.44;4985631;28;20556;-77
2023/12/19 00:02:45;;;;;;;21.75;15.55;;;4.20;1.00;;;2.63;100.00;101758.50;4966716;28;20046;-78
2023/12/19 00:05:12;;;;;;;23.08;16.33;;;4.10;1.00;;;2.53;100.00;101751.28;4984763;28;20050;-78
2023/12/19 00:07:43;;;;;;;25.35;15.45;;;4.00;1.00;;;2.48;100.00;101756.31;4968728;28;20608;-79
2023/12/19 00:10:10;;;;;;;24.50;16.38;;;4.20;1.00;;;2.54;100.00;101773.81;4991897;28;20054;-78
2023/12/19 00:12:37;;;;;;;23.05;16.20;;;4.10;1.00;;;2.60;100.00;101783.53;4978773;28;20077;-78
2023/12/19 00:15:05;;;;;;;19.80;15.10;;;4.20;1.00;;;2.64;100.00;101794.06;4977960;28;20042;-79
2023/12/19 00:17:32;;;;;;;18.67;13.85;;;4.20;1.00;;;2.74;100.00;101807.34;4981787;28;20057;-78
2023/12/19 00:20:00;;;;;;;20.50;14.65;;;4.20;1.00;;;2.69;100.00;101805.50;4972798;28;20518;-77
2023/12/19 00:22:27;;;;;;;22.17;14.75;;;4.20;1.00;;;2.49;100.00;101768.47;4989080;28;20045;-79
2023/12/19 00:24:54;;;;;;;18.80;14.20;;;4.20;99.90;;;2.59;100.00;101780.03;4975181;28;20405;-78
2023/12/19 00:27:24;;;;;;;22.13;15.82;;;4.20;99.90;;;2.63;100.00;101788.81;4992411;28;20481;-77
2023/12/19 00:29:51;;;;;;;19.92;14.75;;;4.10;99.90;;;2.53;100.00;101767.72;4979417;28;20043;-79
2023/12/19 00:32:18;;;;;;;20.15;14.40;;;4.10;1.00;;;2.38;100.00;101738.66;4979114;28;20060;-78
2023/12/19 00:34:45;;;;;;;20.17;15.18;;;4.10;1.00;;;2.63;100.00;101797.50;4994524;28;20072;-78
2023/12/19 00:37:13;;;;;;;20.13;13.85;;;4.20;1.00;;;2.60;100.00;101788.75;4988972;28;20038;-78
2023/12/19 00:39:40;;;;;;;21.80;15.18;;;3.90;1.00;;;2.37;100.00;101750.78;4996295;28;20041;-78
2023/12/19 00:42:07;;;;;;;19.90;13.65;;;3.90;1.00;;;2.57;100.00;101786.91;4994813;28;20050;-78
2023/12/19 00:44:37;;;;;;;19.33;14.63;;;4.00;1.00;;;2.52;100.00;101776.38;4989503;28;20501;-78
2023/12/19 00:47:04;;;;;;;16.58;13.52;;;4.00;1.00;;;2.58;100.00;101759.22;4982573;28;20046;-77
2023/12/19 00:49:31;;;;;;;21.67;14.65;;;4.10;1.00;;;2.39;100.00;101715.34;4976980;28;20663;-77
2023/12/19 00:52:00;;;;;;;22.88;15.20;;;4.10;1.00;;;2.36;100.00;101703.97;4976803;28;20046;-77
2023/12/19 00:54:27;;;;;;;17.83;14.00;;;4.10;1.00;;;2.58;100.00;101743.63;4991935;28;20497;-79
2023/12/19 00:56:55;;;;;;;20.00;14.57;;;4.00;1.00;;;2.57;100.00;101744.44;4959801;28;20065;-77
2023/12/19 00:59:22;;;;;;;19.15;14.90;;;4.10;1.00;;;2.47;100.00;101725.09;4974806;28;20140;-77
2023/12/19 01:01:49;;;;;;;20.10;15.05;;;4.10;1.00;;;2.70;100.00;101777.78;4972745;28;20088;-78
2023/12/19 01:04:17;;;;;;;19.60;14.98;;;4.10;1.00;;;2.71;100.00;101779.53;4989354;28;20164;-76
2023/12/19 01:06:45;;;;;;;18.13;13.73;;;4.20;1.00;;;2.55;100.00;101749.59;4986330;28;20050;-78
2023/12/19 01:09:13;;;;;;;17.83;14.60;;;4.10;1.00;;;2.53;100.00;101769.47;4992432;28;20050;-78
2023/12/19 01:11:40;;;;;;;20.48;14.07;;;4.20;1.00;;;2.67;100.00;101811.47;4968692;28;20050;-77
2023/12/19 01:14:07;;;;;;;19.48;14.85;;;4.50;1.00;;;2.50;100.00;101787.56;4971893;28;20141;-78
2023/12/19 01:16:34;;;;;;;17.05;13.10;;;4.10;99.90;;;2.42;100.00;101758.75;4989562;28;20039;-77
2023/12/19 01:19:02;;;;;;;16.05;12.52;;;4.00;99.90;;;2.45;100.00;101776.13;4992415;28;20420;-77
2023/12/19 01:21:30;;;;;;;16.70;13.52;;;3.90;99.90;;;2.37;100.00;101778.47;4991594;28;20093;-78
2023/12/19 01:23:57;;;;;;;20.27;13.30;;;4.00;99.90;;;2.44;100.00;101783.06;4972432;28;20098;-77
2023/12/19 01:26:24;;;;;;;16.38;13.05;;;3.90;99.90;;;2.24;100.00;101757.28;4988584;28;20405;-78
2023/12/19 01:28:56;;;;;;;16.20;12.43;;;3.90;99.90;;;2.22;100.00;101774.53;4973070;28;20142;-77
2023/12/19 01:31:23;;;;;;;18.67;12.63;;;3.80;99.90;;;2.16;100.00;101766.56;4968044;28;20046;-76
2023/12/19 01:33:51;;;;;;;17.08;13.10;;;3.80;99.90;;;1.58;100.00;101692.81;4959655;28;20250;-76
2023/12/19 01:36:19;;;;;;;17.90;13.18;;;3.80;99.90;;;2.08;100.00;101774.09;4969366;28;20054;-77
2023/12/19 01:38:46;;;;;;;18.33;14.05;;;3.80;99.90;;;2.30;100.00;101812.88;4975238;28;20078;-77
2023/12/19 01:41:13;;;;;;;18.45;13.27;;;5.10;99.90;;;1.57;100.00;101714.38;4992073;28;20089;-76
2023/12/19 01:43:40;;;;;;;18.83;14.27;;;5.30;99.90;;;2.15;100.00;101814.13;4972444;28;20042;-78
2023/12/19 01:46:15;;;;;;;16.58;13.40;;;3.70;99.90;;;2.20;100.00;101825.53;4984364;28;20042;-78
2023/12/19 01:48:43;;;;;;;17.95;12.90;;;3.60;99.90;;;2.02;100.00;101818.00;4984953;28;20046;-77
2023/12/19 01:51:12;;;;;;;18.67;12.45;;;3.50;99.90;;;1.74;100.00;101772.03;4983655;28;20176;-77
2023/12/19 01:53:44;;;;;;;18.52;13.60;;;3.50;99.90;;;1.89;100.00;101810.63;4964531;28;20043;-77
2023/12/19 01:56:15;;;;;;;19.70;14.05;;;3.50;99.90;;;1.72;100.00;101765.91;4973419;28;20045;-77
2023/12/19 01:58:42;;;;;;;17.20;12.93;;;3.50;99.90;;;1.91;100.00;101807.25;4972184;28;20081;-77
2023/12/19 02:01:11;;;;;;;16.38;13.10;;;3.40;99.90;;;1.77;100.00;101793.81;4980160;28;20236;-77
2023/12/19 02:03:41;;;;;;;18.70;13.25;;;3.60;99.90;;;1.70;100.00;101790.09;4976038;28;20069;-79
2023/12/19 02:06:10;;;;;;;19.25;13.50;;;3.40;99.90;;;1.67;100.00;101774.44;4972268;28;20138;-77
2023/12/19 02:08:38;;;;;;;17.77;13.45;;;3.40;99.90;;;1.62;100.00;101754.34;4976331;28;20087;-78
2023/12/19 02:11:05;;;;;;;18.52;13.52;;;3.40;99.90;;;1.79;100.00;101778.25;4992007;28;20066;-78
2023/12/19 02:13:32;;;;;;;19.10;15.15;;;3.40;99.90;;;1.80;100.00;101767.09;4972867;28;20050;-76
2023/12/19 02:15:59;;;;;;;19.08;14.27;;;3.50;1.00;;;1.78;100.00;101755.75;4982245;28;20066;-78
2023/12/19 02:18:26;;;;;;;21.15;16.60;;;3.50;1.00;;;1.84;100.00;101759.44;4975281;28;20039;-76
2023/12/19 02:20:54;;;;;;;21.67;16.08;;;3.40;1.00;;;1.92;100.00;101777.00;4973078;28;20061;-78
2023/12/19 02:23:22;;;;;;;20.25;15.23;;;3.30;1.00;;;1.84;100.00;101769.81;4992094;28;20034;-78
2023/12/19 02:25:51;;;;;;;22.40;16.58;;;4.00;1.00;;;1.83;100.00;101769.78;4974630;28;20042;-77
2023/12/19 02:28:18;;;;;;;21.88;14.80;;;3.40;1.00;;;1.59;100.00;101717.91;4990856;28;20088;-79
2023/12/19 02:30:45;;;;;;;23.63;14.60;;;3.40;1.00;;;1.66;100.00;101727.66;4968919;28;20086;-78
2023/12/19 02:33:12;;;;;;;19.60;14.43;;;3.40;1.00;;;1.88;100.00;101768.22;4984025;28;20043;-77
2023/12/19 02:35:39;;;;;;;22.92;15.88;;;3.50;1.00;;;1.83;100.00;101759.41;4951109;28;20473;-76
2023/12/19 02:38:06;;;;;;;18.70;15.02;;;3.40;1.00;;;1.82;100.00;101779.25;4967330;28;20583;-77
2023/12/19 02:40:34;;;;;;;19.08;14.55;;;3.30;1.00;;;1.68;100.00;101765.81;4991680;28;20042;-77
2023/12/19 02:43:01;;;;;;;26.17;17.05;;;3.10;1.00;;;1.77;100.00;101787.72;4991831;28;20057;-78
2023/12/19 02:45:31;;;;;;;23.92;17.23;;;3.10;1.00;;;1.67;100.00;101768.34;5005851;28;20042;-78
2023/12/19 02:47:59;;;;;;;22.60;15.20;;;3.30;1.00;;;1.79;100.00;101773.06;4989853;28;20126;-77
2023/12/19 02:50:26;;;;;;;21.60;15.18;;;3.30;1.00;;;1.86;100.00;101777.66;4971825;28;20149;-77
2023/12/19 02:52:53;;;;;;;20.73;16.08;;;3.30;1.00;;;1.36;100.00;101692.94;4974019;28;20052;-76
2023/12/19 02:55:20;;;;;;;22.70;15.98;;;3.30;1.00;;;1.82;100.00;101755.91;4988883;28;20057;-77
2023/12/19 02:57:47;;;;;;;21.88;16.55;;;3.30;1.00;;;1.67;100.00;101729.41;4951090;28;20153;-75
2023/12/19 03:00:18;;;;;;;21.02;16.70;;;3.30;1.00;;;1.76;100.00;101747.91;4990045;28;20035;-78
2023/12/19 03:02:45;;;;;;;24.73;16.60;;;3.20;1.00;;;1.60;100.00;101720.53;4986842;28;20055;-76
2023/12/19 03:05:12;;;;;;;21.75;15.13;;;3.20;1.00;;;1.60;100.00;101730.06;4968854;28;20046;-78
2023/12/19 03:07:39;;;;;;;21.98;15.82;;;3.00;1.00;;;1.53;100.00;101718.56;4967165;28;20054;-78
2023/12/19 03:10:08;;;;;;;20.75;14.95;;;3.10;1.00;;;1.59;100.00;101739.53;4969765;28;20042;-78
2023/12/19 03:12:36;;;;;;;18.73;14.18;;;3.00;1.00;;;1.65;100.00;101747.56;4989888;28;20457;-76
2023/12/19 03:15:04;;;;;;;20.30;16.25;;;3.10;1.00;;;1.64;100.00;101740.59;4961412;28;20043;-78
2023/12/19 03:17:31;;;;;;;19.05;14.10;;;3.10;1.00;;;1.61;100.00;101749.97;4971386;28;20050;-77
2023/12/19 03:19:58;;;;;;;21.58;14.50;;;3.20;1.00;;;1.13;100.00;101645.44;4990579;28;20030;-78
2023/12/19 03:22:25;;;;;;;19.70;15.20;;;3.30;1.00;;;1.58;100.00;101706.63;4957573;28;20142;-78
2023/12/19 03:24:52;;;;;;;22.30;16.50;;;3.10;1.00;;;1.65;100.00;101750.16;4951169;28;20054;-76
2023/12/19 03:27:19;;;;;;;23.00;16.80;;;3.00;1.00;;;1.02;100.00;101660.63;4978007;28;20108;-78
2023/12/19 03:29:46;;;;;;;21.05;17.55;;;2.90;1.00;;;1.08;100.00;101662.53;4974549;28;20074;-76
2023/12/19 03:32:13;;;;;;;22.80;15.48;;;2.90;1.00;;;1.51;100.00;101743.59;4974902;28;20053;-77
2023/12/19 03:34:40;;;;;;;23.88;16.67;;;3.00;1.00;;;1.51;100.00;101730.63;4981842;28;20053;-77
2023/12/19 03:37:07;;;;;;;25.02;15.93;;;3.00;1.00;;;1.26;100.00;101696.00;4973671;28;20092;-77
2023/12/19 03:39:34;;;;;;;20.17;13.80;;;3.10;1.00;;;1.65;100.00;101772.59;4984132;28;20054;-77
2023/12/19 03:42:01;;;;;;;21.92;15.27;;;3.20;1.00;;;1.46;100.00;101737.34;4971060;28;20527;-77
2023/12/19 03:44:42;;;;;;;17.45;13.50;;;3.20;1.00;;;1.66;100.00;101762.28;4983995;28;20110;-78
2023/12/19 03:47:12;;;;;;;18.77;14.75;;;3.50;1.00;;;1.61;100.00;101749.97;4989406;28;20149;-76
2023/12/19 03:49:40;;;;;;;18.77;15.88;;;3.10;1.00;;;1.35;100.00;101695.47;4905308;28;20425;-75
2023/12/19 03:52:09;;;;;;;20.63;15.50;;;3.00;1.00;;;1.27;100.00;101670.16;4952831;28;20054;-75
2023/12/19 03:54:36;;;;;;;23.98;16.77;;;3.00;1.00;;;1.51;100.00;101713.31;4960836;28;20057;-76
2023/12/19 03:57:04;;;;;;;23.27;16.05;;;3.00;1.00;;;1.37;100.00;101697.28;4978682;28;20050;-76
2023/12/19 03:59:31;;;;;;;22.08;15.93;;;3.00;1.00;;;1.47;100.00;101713.16;4961298;28;20150;-76
2023/12/19 04:01:59;;;;;;;31.48;22.08;;;3.10;1.00;;;1.52;100.00;101711.63;4949448;28;20092;-76
2023/12/19 04:04:26;;;;;;;22.13;18.02;;;3.40;1.00;;;1.47;100.00;101697.59;4960014;28;20058;-76
2023/12/19 04:06:53;;;;;;;22.52;16.63;;;3.10;1.00;;;1.61;100.00;101714.53;4953681;28;20493;-76
2023/12/19 04:09:20;;;;;;;21.98;14.45;;;3.10;1.00;;;1.52;100.00;101709.03;4978524;28;20045;-76
2023/12/19 04:11:48;;;;;;;19.02;15.35;;;3.10;1.00;;;1.49;100.00;101696.81;4962854;28;20338;-76
2023/12/19 04:14:15;;;;;;;17.92;14.20;;;3.10;1.00;;;1.38;100.00;101675.72;4981426;28;20141;-76
2023/12/19 04:16:42;;;;;;;24.30;15.98;;;3.00;1.00;;;1.31;100.00;101659.88;4952081;28;20050;-76
2023/12/19 04:19:09;;;;;;;44.42;33.47;;;3.00;1.00;;;1.34;100.00;101671.25;4966010;28;20038;-76
2023/12/19 04:21:37;;;;;;;53.00;39.35;;;3.00;1.00;;;1.17;100.00;101655.09;4969832;28;20093;-76
2023/12/19 04:24:05;;;;;;;37.38;29.70;;;3.00;1.00;;;1.18;100.00;101672.41;4976395;28;20042;-76
2023/12/19 04:26:32;;;;;;;25.77;19.85;;;2.60;1.00;;;1.02;100.00;101668.41;4984874;28;20054;-76
2023/12/19 04:28:59;;;;;;;21.63;17.17;;;2.90;1.00;;;1.23;100.00;101712.34;4966564;28;20054;-76
2023/12/19 04:31:26;;;;;;;17.63;13.98;;;2.70;1.00;;;1.10;100.00;101687.69;4981466;28;20158;-75
2023/12/19 04:33:53;;;;;;;21.05;15.90;;;2.70;1.00;;;1.20;100.00;101706.19;4987093;28;20489;-75
2023/12/19 04:36:25;;;;;;;19.65;15.38;;;2.70;1.00;;;1.21;100.00;101697.56;4981355;28;20506;-75
2023/12/19 04:38:52;;;;;;;20.20;15.35;;;2.70;1.00;;;1.13;100.00;101677.41;4979455;28;20445;-75
2023/12/19 04:41:19;;;;;;;19.70;15.35;;;2.60;1.00;;;1.08;100.00;101671.19;4962040;28;20043;-76
2023/12/19 04:43:46;;;;;;;22.02;16.60;;;2.60;1.00;;;1.19;100.00;101694.03;4975366;28;20042;-76
2023/12/19 04:46:13;;;;;;;20.33;14.50;;;2.80;1.00;;;1.29;100.00;101693.53;4979936;28;20046;-75
2023/12/19 04:48:43;;;;;;;18.60;14.85;;;2.70;1.00;;;1.27;100.00;101690.91;4977519;28;20100;-76
2023/12/19 04:51:22;;;;;;;23.67;17.25;;;2.80;1.00;;;1.11;100.00;101650.56;4978279;28;20046;-75
2023/12/19 04:53:49;;;;;;;19.00;14.70;;;2.80;1.00;;;1.21;100.00;101674.22;4981150;28;20073;-75
2023/12/19 04:56:16;;;;;;;18.63;15.43;;;2.90;1.00;;;1.29;100.00;101680.56;4953325;28;20049;-76
2023/12/19 04:58:46;;;;;;;21.67;14.68;;;2.90;1.00;;;1.26;100.00;101688.25;4975221;28;20400;-76
2023/12/19 05:01:13;;;;;;;19.67;14.88;;;2.80;1.00;;;1.08;100.00;101668.59;4990071;28;20732;-75
2023/12/19 05:03:41;;;;;;;15.20;12.30;;;2.80;1.00;;;1.11;100.00;101673.91;4972829;28;20038;-75
2023/12/19 05:06:16;;;;;;;17.58;14.18;;;2.80;1.00;;;0.95;100.00;101654.34;4964831;28;20456;-75
2023/12/19 05:08:48;;;;;;;19.48;13.95;;;2.60;99.90;;;1.00;100.00;101659.66;4966238;28;20066;-76
2023/12/19 05:11:15;;;;;;;18.50;13.98;;;2.70;1.00;;;0.97;100.00;101681.19;4985394;28;20357;-75
2023/12/19 05:13:42;;;;;;;18.80;13.65;;;2.60;1.00;;;0.97;100.00;101681.19;4965792;28;20077;-75
2023/12/19 05:16:13;;;;;;;16.75;13.80;;;2.60;99.90;;;0.91;100.00;101678.34;4980442;28;20073;-75
2023/12/19 05:18:45;;;;;;;19.02;14.05;;;2.60;1.00;;;0.88;100.00;101678.25;4971724;28;20047;-75
2023/12/19 05:21:13;;;;;;;21.00;15.95;;;2.70;99.90;;;0.92;100.00;101684.44;4972556;28;20050;-76
2023/12/19 05:23:41;;;;;;;17.20;13.27;;;2.60;1.00;;;0.74;100.00;101659.59;4980363;28;20050;-75
2023/12/19 05:26:08;;;;;;;18.23;14.23;;;2.50;99.90;;;0.87;100.00;101673.88;4984802;28;21304;-77
2023/12/19 05:28:38;;;;;;;25.77;15.95;;;2.60;1.00;;;0.92;100.00;101687.03;4968279;28;20058;-76
2023/12/19 05:31:05;;;;;;;26.38;17.15;;;2.50;1.00;;;0.93;100.00;101687.06;4969422;28;20055;-77
2023/12/19 05:33:34;;;;;;;22.92;15.00;;;2.60;1.00;;;1.00;100.00;101706.31;4978262;28;20049;-77
2023/12/19 05:36:02;;;;;;;18.50;13.55;;;2.70;1.00;;;1.08;100.00;101719.56;4972413;28;20105;-77
2023/12/19 05:38:32;;;;;;;18.42;13.32;;;2.60;1.00;;;1.08;100.00;101704.91;4989275;28;20046;-77
2023/12/19 05:41:00;;;;;;;16.45;12.85;;;2.70;1.00;;;1.13;100.00;101718.91;4968676;28;20049;-77
2023/12/19 05:43:27;;;;;;;17.95;12.95;;;2.60;1.00;;;0.91;100.00;101670.56;4956664;28;20038;-77
2023/12/19 05:45:55;;;;;;;18.02;13.27;;;2.80;1.00;;;1.22;100.00;101694.16;4945104;28;20054;-77
2023/12/19 05:48:22;;;;;;;16.65;12.30;;;2.70;1.00;;;1.30;100.00;101703.06;4989390;28;20049;-78
2023/12/19 05:50:51;;;;;;;17.10;12.35;;;2.80;1.00;;;1.41;100.00;101719.03;4993072;28;20062;-78
2023/12/19 05:53:18;;;;;;;15.20;11.63;;;4.10;1.00;;;1.13;100.00;101658.41;4992093;28;20440;-77
2023/12/19 05:55:45;;;;;;;16.25;12.43;;;2.80;1.00;;;1.43;100.00;101707.00;4984689;28;20133;-77
2023/12/19 05:58:12;;;;;;;24.30;21.70;;;4.30;1.00;;;1.23;100.00;101659.63;4961363;28;20070;-77
2023/12/19 06:00:39;;;;;;;22.63;17.65;;;2.90;1.00;;;1.40;100.00;101696.50;4979918;28;20050;-77
2023/12/19 06:03:06;;;;;;;17.27;13.63;;;2.90;1.00;;;1.47;100.00;101708.88;4970242;28;20042;-77
2023/12/19 06:05:33;;;;;;;22.95;19.40;;;2.80;1.00;;;1.29;100.00;101692.66;4982454;28;20457;-78
2023/12/19 06:08:02;;;;;;;24.50;18.52;;;2.90;1.00;;;1.41;100.00;101713.84;4971871;28;20057;-80
2023/12/19 06:10:29;;;;;;;17.30;13.80;;;4.20;1.00;;;1.39;100.00;101707.69;4985343;28;20050;-77
2023/12/19 06:12:56;;;;;;;16.42;12.82;;;3.00;1.00;;;1.51;100.00;101722.84;4970089;28;20478;-77
2023/12/19 06:15:24;;;;;;;17.70;12.93;;;3.10;1.00;;;1.41;100.00;101703.47;4962060;28;20331;-79
2023/12/19 06:17:51;;;;;;;18.58;13.07;;;3.00;1.00;;;1.50;100.00;101732.31;4977293;28;20042;-78
2023/12/19 06:20:18;;;;;;;16.65;12.68;;;3.10;1.00;;;1.52;100.00;101742.75;4969037;28;20034;-77
2023/12/19 06:22:48;;;;;;;15.02;10.88;;;3.00;1.00;;;1.19;100.00;101697.50;4988247;28;20052;-78
2023/12/19 06:25:15;;;;;;;17.92;12.77;;;3.00;1.00;;;1.57;100.00;101767.13;4962985;28;20061;-79
2023/12/19 06:27:43;;;;;;;17.45;11.95;;;3.10;1.00;;;1.48;100.00;101751.22;4987670;28;20054;-79
2023/12/19 06:30:12;;;;;;;16.63;12.48;;;3.10;1.00;;;1.33;100.00;101721.34;4964788;28;20054;-78
2023/12/19 06:32:53;;;;;;;13.85;11.40;;;3.00;1.00;;;1.18;100.00;101687.09;4983890;28;20046;-78
2023/12/19 06:35:21;;;;;;;20.77;14.60;;;3.00;1.00;;;1.41;100.00;101722.50;4963782;28;20046;-80
2023/12/19 06:37:48;;;;;;;17.90;14.10;;;3.00;1.00;;;1.36;100.00;101713.69;4966633;28;20454;-79
2023/12/19 06:40:16;;;;;;;21.65;13.82;;;3.10;1.00;;;1.62;100.00;101738.78;4971264;28;20038;-80
2023/12/19 06:42:44;;;;;;;15.93;12.60;;;4.00;1.00;;;1.49;100.00;101717.56;4971823;28;20129;-78
2023/12/19 06:45:12;;;;;;;17.67;12.35;;;3.00;1.00;;;1.67;100.00;101737.22;4970080;28;20745;-78
2023/12/19 06:47:39;;;;;;;17.88;14.30;;;3.20;1.00;;;1.69;100.00;101738.13;4980060;28;20501;-79
2023/12/19 06:50:08;;;;;;;21.80;15.65;;;3.20;1.00;;;1.61;100.00;101724.03;4971665;28;20142;-77
2023/12/19 06:52:35;;;;;;;23.02;15.32;;;3.20;1.00;;;1.62;100.00;101728.38;4967447;28;20121;-77
2023/12/19 06:55:02;;;;;;;21.75;14.60;;;3.20;1.00;;;1.64;100.00;101722.44;4969139;28;20141;-76
2023/12/19 06:57:29;;;;;;;19.83;14.93;;;3.40;1.00;;;1.69;100.00;101727.75;4984239;28;20065;-77
2023/12/19 06:59:56;;;;;;;20.73;13.52;;;3.20;1.00;;;1.54;100.00;101710.81;4977855;28;20061;-77
2023/12/19 07:02:23;;;;;;;19.60;13.35;;;3.10;1.00;;;1.35;100.00;101685.97;4969756;28;20093;-77
2023/12/19 07:04:50;;;;;;;20.80;14.00;;;3.10;1.00;;;1.60;100.00;101723.13;4976166;28;20038;-77
2023/12/19 07:07:17;;;;;;;17.20;12.18;;;3.00;1.00;;;1.44;100.00;101694.91;4951592;28;20050;-77
2023/12/19 07:09:44;;;;;;;19.63;13.68;;;3.00;1.00;;;1.35;100.00;101687.69;4964165;28;20054;-77
2023/12/19 07:12:11;;;;;;;15.45;11.80;;;2.90;1.00;;;1.38;100.00;101701.66;4966844;28;20054;-77
2023/12/19 07:14:38;;;;;;;32.63;24.33;;;2.90;1.00;;;1.24;100.00;101670.03;4963641;28;20050;-76
2023/12/19 07:17:05;;;;;;;19.55;13.63;;;2.90;1.00;;;1.32;100.00;101697.94;4969921;28;20101;-77
2023/12/19 07:19:33;;;;;;;20.33;15.30;;;2.90;1.00;;;1.40;100.00;101723.31;4954005;28;20053;-77
2023/12/19 07:22:01;;;;;;;19.48;16.23;;;2.80;1.00;;;1.32;100.00;101704.00;4986407;28;20035;-77
2023/12/19 07:24:29;;;;;;;20.30;15.30;;;2.70;1.00;;;1.18;100.00;101684.50;4961365;28;20836;-77
2023/12/19 07:26:57;;;;;;;17.92;13.82;;;2.80;1.00;;;1.25;100.00;101710.72;4979426;28;20066;-77
2023/12/19 07:29:24;;;;;;;19.27;13.70;;;2.70;1.00;;;1.21;100.00;101679.44;4967114;28;20130;-77
2023/12/19 07:31:51;;;;;;;20.70;13.25;;;2.80;1.00;;;1.23;100.00;101695.91;4955269;28;20057;-77
2023/12/19 07:34:19;;;;;;;16.75;11.38;;;2.60;1.00;;;1.18;100.00;101698.34;4986072;28;20597;-77
2023/12/19 07:36:46;;;;;;;17.73;12.90;;;2.70;1.00;;;1.23;100.00;101704.56;4964758;28;20133;-78
2023/12/19 07:39:13;;;;;;;19.50;14.18;;;2.70;1.00;;;1.22;100.00;101692.41;4968803;28;20041;-77
2023/12/19 07:41:40;;;;;;;19.27;16.30;;;2.70;1.00;;;1.12;100.00;101677.38;4974017;28;20088;-77
2023/12/19 07:44:10;;;;;;;16.58;13.10;;;2.70;1.00;;;1.31;100.00;101712.63;4965985;28;20482;-77
2023/12/19 07:46:41;;;;;;;;;;;3.80;1.00;;;1.21;100.00;101684.59;4960640;28;20056;-77
2023/12/19 07:49:10;;;;;;;18.90;14.32;;;2.70;1.00;;;1.13;100.00;101672.22;4986270;28;19930;-77
2023/12/19 07:51:37;;;;;;;18.58;12.43;;;2.70;1.00;;;1.08;100.00;101663.41;4951426;28;20623;-77
2023/12/19 07:54:05;;;;;;;15.90;10.90;;;2.70;1.00;;;1.22;100.00;101681.19;4950448;28;20047;-76
2023/12/19 07:56:32;;;;;;;17.58;12.23;;;2.80;1.00;;;1.22;100.00;101684.66;4958400;28;20109;-77
2023/12/19 07:58:59;;;;;;;14.95;10.73;;;2.70;1.00;;;0.99;100.00;101634.56;4966590;28;20039;-77
2023/12/19 08:01:26;;;;;;;14.88;11.10;;;2.60;1.00;;;1.29;100.00;101683.16;4975600;28;20038;-77
2023/12/19 08:03:53;;;;;;;16.63;12.75;;;2.80;1.00;;;1.12;100.00;101654.06;4985468;28;20039;-77
2023/12/19 08:06:23;;;;;;;19.35;13.57;;;2.70;1.00;;;1.18;100.00;101659.44;4953530;28;20046;-77
2023/12/19 08:08:52;;;;;;;14.50;11.02;;;2.70;1.00;;;1.01;100.00;101634.63;4962801;28;20050;-77
2023/12/19 08:11:19;;;;;;;16.15;12.07;;;2.80;1.00;;;0.92;100.00;101606.69;4977673;28;20042;-77
2023/12/19 08:18:54;;;;;;;15.40;11.02;;;2.80;1.00;;;1.38;100.00;101682.59;4975130;28;20401;-78
2023/12/19 08:21:21;;;;;;;14.02;10.48;;;2.80;1.00;;;1.28;100.00;101668.41;4969608;28;20051;-78
2023/12/19 08:23:48;;;;;;;15.50;11.50;;;2.90;1.00;;;1.42;100.00;101676.72;4977703;28;20049;-78
2023/12/19 08:26:15;;;;;;;13.20;10.38;;;2.80;1.00;;;1.37;100.00;101662.66;4986450;28;20438;-78
2023/12/19 08:28:42;;;;;;;13.25;10.80;;;2.90;1.00;;;1.31;100.00;101652.97;4968618;28;20118;-78
2023/12/19 08:31:10;;;;;;;16.52;12.88;;;2.90;1.00;;;1.48;100.00;101663.03;4983761;28;20043;-79
2023/12/19 08:33:41;;;;;;;17.65;12.10;;;2.80;1.00;;;1.36;100.00;101651.44;4990550;28;20133;-78
2023/12/19 08:36:10;;;;;;;17.88;11.65;;;3.10;1.00;;;1.42;100.00;101648.19;4974179;28;20076;-77
2023/12/19 08:38:57;;;;;;;17.33;11.27;;;2.90;1.00;;;1.36;100.00;101653.13;4983877;28;20511;-76
2023/12/19 08:41:24;;;;;;;19.70;11.95;;;2.80;1.00;;;1.44;100.00;101662.06;4956055;28;20045;-76
2023/12/19 08:43:51;;;;;;;14.57;10.98;;;2.80;1.00;;;1.33;100.00;101647.84;4982053;28;20046;-76
2023/12/19 08:46:19;;;;;;;16.30;12.13;;;2.80;1.00;;;1.20;100.00;101634.44;4969484;28;20544;-76
2023/12/19 08:48:49;;;;;;;17.45;13.07;;;2.70;1.00;;;1.33;100.00;101656.53;4982854;28;20046;-76
2023/12/19 08:51:17;;;;;;;16.35;12.48;;;2.80;1.00;;;1.36;100.00;101654.03;4961871;28;20046;-78
2023/12/19 08:53:44;;;;;;;18.98;12.90;;;2.80;1.00;;;1.26;100.00;101645.06;4979348;28;20471;-75
2023/12/19 08:56:12;;;;;;;18.63;12.48;;;2.70;1.00;;;1.19;100.00;101630.09;4985730;28;20074;-77
2023/12/19 08:58:39;;;;;;;19.45;11.85;;;2.90;1.00;;;1.48;100.00;101670.81;4981850;28;20070;-76
2023/12/19 09:01:05;;;;;;;16.65;12.38;;;2.90;1.00;;;1.36;100.00;101643.66;4989094;28;20116;-76
2023/12/19 09:08:07;;;;;;;15.48;11.60;;;3.00;1.00;;;1.52;100.00;101649.38;4976857;28;20080;-77
2023/12/19 09:10:35;;;;;;;20.48;12.98;;;2.90;1.00;;;1.57;100.00;101657.31;4981097;28;20050;-76
2023/12/19 09:13:02;;;;;;;13.18;10.38;;;3.00;1.00;;;1.56;100.00;101638.25;4971900;28;20078;-76
2023/12/19 09:15:29;;;;;;;18.27;12.98;;;2.90;1.00;;;1.59;100.00;101646.13;4988393;28;20121;-76
2023/12/19 09:17:56;;;;;;;14.63;11.20;;;3.00;1.00;;;1.65;100.00;101641.16;4983506;28;20151;-76
2023/12/19 09:20:24;;;;;;;17.83;12.35;;;3.00;1.00;;;1.52;100.00;101624.28;4985722;28;20117;-76
2023/12/19 09:22:51;;;;;;;16.92;12.63;;;3.00;1.00;;;1.77;100.00;101665.75;4988717;28;20129;-77
2023/12/19 09:25:18;;;;;;;18.95;12.75;;;3.10;1.00;;;1.60;100.00;101628.88;4980216;28;20031;-77
2023/12/19 09:27:47;;;;;;;19.35;13.27;;;3.20;1.00;;;1.79;100.00;101656.28;4986250;28;20057;-76
2023/12/19 09:30:16;;;;;;;21.63;13.13;;;3.30;1.00;;;1.90;100.00;101654.06;4960904;28;20053;-77
2023/12/19 09:32:43;;;;;;;18.08;15.35;;;3.50;1.00;;;1.94;100.00;101642.94;5005165;28;20125;-77
2023/12/19 09:35:11;;;;;;;18.95;12.35;;;3.50;1.00;;;2.07;100.00;101655.47;4979967;28;20053;-77
2023/12/19 09:37:38;;;;;;;15.23;11.15;;;3.40;1.00;;;2.02;100.00;101628.47;4969372;28;20043;-77
2023/12/19 09:40:19;;;;;;;21.00;16.90;;;3.50;1.00;;;2.11;100.00;101633.09;4989122;28;20070;-78
2023/12/19 09:42:46;;;;;;;15.40;11.40;;;3.60;1.00;;;2.11;100.00;101620.97;4972788;28;20125;-78
2023/12/19 09:45:14;;;;;;;16.92;11.52;;;3.50;1.00;;;1.98;100.00;101596.38;4976029;28;20034;-78
2023/12/19 09:47:53;;;;;;;17.58;11.55;;;3.60;1.00;;;2.14;100.00;101612.41;4995567;28;20042;-78
2023/12/19 09:50:24;;;;;;;13.93;10.52;;;3.60;1.00;;;2.11;100.00;101605.41;4992069;28;20055;-78
2023/12/19 09:52:55;;;;;;;24.10;16.83;;;5.00;1.00;;;1.90;100.00;101590.03;4983624;28;20102;-78
2023/12/19 09:55:24;;;;;;;19.20;12.85;;;3.70;1.00;;;2.09;100.00;101609.69;4957980;28;20134;-78
2023/12/19 09:57:53;;;;;;;17.75;12.52;;;3.50;1.00;;;2.06;100.00;101603.50;4977271;28;20600;-78
2023/12/19 10:00:22;;;;;;;17.35;11.93;;;3.60;1.00;;;1.97;100.00;101589.41;4977642;28;20142;-78
2023/12/19 10:02:51;;;;;;;17.80;12.87;;;3.60;1.00;;;2.16;100.00;101607.25;4974435;28;20043;-78
2023/12/19 10:05:18;;;;;;;15.07;11.13;;;3.70;1.00;;;2.13;100.00;101608.94;4988007;28;20046;-78
2023/12/19 10:07:47;;;;;;;16.55;11.85;;;3.60;1.00;;;2.15;100.00;101608.97;4959090;28;20050;-78
2023/12/19 10:10:15;;;;;;;12.93;9.38;;;3.60;1.00;;;2.22;100.00;101625.63;4988840;28;20125;-78
2023/12/19 10:12:50;;;;;;;14.90;10.35;;;3.80;1.00;;;2.09;100.00;101598.38;4969531;28;20047;-78
2023/12/19 10:15:25;;;;;;;15.23;11.07;;;3.70;1.00;;;2.10;100.00;101598.44;4974345;28;20386;-78
2023/12/19 10:18:10;;;;;;;15.00;10.95;;;3.70;1.00;;;2.34;100.00;101622.53;4982477;28;20038;-78
2023/12/19 10:20:39;;;;;;;14.55;11.27;;;3.80;1.00;;;2.33;100.00;101599.97;4973565;28;20042;-78
2023/12/19 10:23:10;;;;;;;15.60;12.05;;;3.80;1.00;;;2.35;100.00;101595.72;4987993;28;20499;-78
2023/12/19 10:25:37;;;;;;;14.98;10.25;;;3.90;1.00;;;2.46;100.00;101590.81;4977046;28;20504;-78